x

Buoy F01 - West Penobscot Bay (44033) Wave Buoy

3:04 - Wed 10th Feb 2016 All times are EST. -5 hours from GMT.

  • Sig Wave height 2.0ft
  • Peak Period 11s
  • Wind
    2mph, 4mph gusts
  • Sea Temp 38°f
  • Air Temp 31°f
  • Sea Pressure 999.5mb
  • Buoy F01 - West Penobscot Bay
  • Buoy F01 - West Penobscot Bay

More Historic Weather Station data

Upgrade to MSW Pro to gain access to the past 30 days of data for over 8000 Wavebouys and Weather Stations around the globe.

Join Pro

Comparision Forecast

View Surf forecast
   
mer. 02/10 3:04 2ft 11s 2 4 mph 999.5mb 38f 31f
2:04 1.6ft 11s 4 7 mph 999.4mb 38f 31f
1:04 1.6ft 11s 7 9 mph 999.6mb 38f 31f
12:04 1.6ft 11s 2 4 mph 1000.3mb 38f 31f
11:04 1.6ft 11s 2 4 mph 1001.1mb 38f 30f
10:04 1.6ft 6s 2 4 mph 1001.7mb 38f 28f
9:04 1.3ft 8s 2 4 mph 1002.2mb 38f 27f
8:04 1.6ft 11s 4 7 mph 1002.2mb 38f 27f
7:04 1.6ft 8s 2 4 mph 1002.1mb 38f 24f
6:04 2ft 8s 2 4 mph 1001.8mb 38f 23f
5:04 2ft 11s 4 7 mph 1001.2mb 38f 23f
4:04 2.5ft 11s 7 9 mph 1001.3mb 38f 22f
3:04 2.5ft 11s 9 11 mph 1001.4mb 38f 22f
2:04 2.5ft 11s 9 11 mph 1001.3mb 38f 22f
1:04 2.5ft 11s 22 25 mph 1000.7mb 38f 23f
12:04 2.5ft 11s 18 22 mph 1000.5mb 38f 23f
mar. 02/09 11:04 2.5ft 11s 11 16 mph 1000.9mb 38f 23f
10:04 1ft 3s 11 16 mph 1000.7mb 38f 24f
9:04  -   -  13 18 mph 1000.6mb 38f 24f
8:04 3ft 11s 11 20 mph 1001.2mb 38f 24f
7:04  -   -  13 18 mph 1001.7mb 38f 24f
6:04 3.5ft 8s 16 18 mph 1001.5mb 38f 24f
5:04 3.5ft 11s 13 18 mph 1001.4mb 38f 24f
4:04  -   -  18 20 mph 1000.6mb 39f 24f
3:04 4ft 11s 20 22 mph 1000.4mb 39f 24f
2:04  -   -  16 18 mph 1000.8mb 39f 24f
1:04  -   -  9 13 mph 1002.5mb 39f 22f
12:04 3.5ft 11s 13 16 mph 1003mb 39f 22f
11:04 1.6ft 3s 11 13 mph 1004.6mb 38f 22f
10:04 2ft 4s 9 11 mph 1005.3mb 38f 21f
9:04 2ft 3s 16 22 mph 1004.6mb 38f 21f
8:04 2ft 4s 16 22 mph 1005.1mb 38f 21f
7:04 2.5ft 4s 20 29 mph 1005.8mb 38f 21f
6:04 3.5ft 4s 22 34 mph 1005.3mb 38f 22f
5:04 3.5ft 8s 22 31 mph 1005mb 38f 22f
4:04 3.5ft 4s 25 29 mph 1005mb 38f 22f
3:04  -   -  22 29 mph 1005.5mb 38f 22f
2:04 4.5ft 4s 27 38 mph 1006.6mb 39f 22f
1:04 6ft 11s 31 38 mph 1006.7mb 39f 22f
12:04 5ft 4s 29 38 mph 1005.6mb 39f 22f
lun. 02/08 11:04 3.5ft 4s 27 34 mph 1006mb 39f 22f
10:04  -   -  27 31 mph 1006.1mb 39f 23f
9:04 4.5ft 5s 29 34 mph 1006.6mb 39f 23f
8:04 7ft 5s 29 38 mph 1006.2mb 39f 24f
7:04 6ft 5s 38 49 mph 1006.1mb 39f 24f
6:04 5ft 5s 29 36 mph 1005.5mb 39f 24f
5:04 5ft 5s 31 49 mph 1005.6mb 39f 24f
4:04 4.5ft 4s 31 40 mph 1006.3mb 39f 23f
3:04 5ft 4s 38 45 mph 1006.9mb 39f 24f
2:04 3.5ft 4s 38 45 mph 1007.6mb 39f 23f
1:04 4.5ft 5s 36 43 mph 1009.3mb 39f 23f
12:04 6ft 5s 36 45 mph 1010.3mb 39f 22f
11:04 5ft 5s 38 47 mph 1011.5mb 39f 22f
10:04 4.5ft 5s 38 45 mph 1012.1mb 39f 21f
9:04 4.5ft 5s 36 45 mph 1013.4mb 39f 20f
8:04 4.5ft 5s 34 43 mph 1015mb 40f 20f
7:04 4.5ft 5s 36 43 mph 1014.6mb 39f 20f
6:04 4ft 5s 34 43 mph 1015.8mb 39f 20f
5:04 3.5ft 4s 31 40 mph 1016.7mb 39f 21f
4:04 3.5ft 4s 29 38 mph 1017.8mb 39f 22f
3:04 3ft 4s 27 36 mph 1018.6mb 39f 22f
2:04 3ft 4s 22 34 mph 1020mb 39f 24f
1:04 3ft 4s 22 34 mph 1020.5mb 39f 25f
12:04 3ft 4s 27 36 mph 1020mb 40f 26f
dim. 02/07 11:04 2.5ft 4s 22 36 mph 1021mb 40f 29f
10:04 2ft 3s 20 25 mph 1021.2mb 40f 30f
9:04 2.5ft 4s 20 22 mph 1021.7mb 40f 32f
8:04 1.3ft 3s 16 20 mph 1021.5mb 39f 34f
7:04 1ft 5s 16 20 mph 1021mb 39f 37f
6:04 1.3ft 5s 11 13 mph 1020.8mb 39f 38f
5:04 1.6ft 5s 11 13 mph 1020mb 39f 38f
4:04 1.6ft 11s 9 11 mph 1020.2mb 39f 38f
3:04 1.6ft 5s 9 11 mph 1020.6mb 39f 38f
2:04 1.6ft 6s 11
mph
1020mb 39f 37f
1:04 2.5ft 6s 9 11 mph 1020mb 39f 39f
12:04 2ft 6s 13 16 mph 1018.1mb 39f 39f
11:04 2ft 6s 11 13 mph 1018.7mb 39f 38f
10:04 2ft 6s 9 13 mph 1018.7mb 39f 36f
9:04 2.5ft 6s 11 13 mph 1018.1mb 39f 34f
8:04 2.5ft 6s 13 18 mph 1018.2mb 39f 34f
7:04 2.5ft 6s 11 16 mph 1018mb 39f 35f
6:04 2.5ft 6s 13 16 mph 1017.6mb 39f 36f
5:04 2.5ft 6s 16 18 mph 1017.3mb 39f 36f
4:04 2.5ft 6s 13 16 mph 1017.3mb 38f 36f
3:04 2.5ft 6s 18 22 mph 1017.6mb 38f 36f
2:04 3ft 8s 13 16 mph 1018.3mb 38f 36f
1:04 2.5ft 6s 18 22 mph 1018.6mb 39f 37f
12:04 3ft 6s 20 27 mph 1019.1mb 39f 37f
sam. 02/06 11:04 3ft 6s 20 22 mph 1019.9mb 39f 38f
10:04 2.5ft 6s 22 27 mph 1020.3mb 39f 38f